Terminal Aerodrome Forecast
Issued by NWS North Platte, NE

Home | Current Version | Previous Version | Text Only | Print | Product List | Glossary Off
Versions: 1 2 3 4 5 6 7 8 9 10 11 12 13 14 15 16

184
FTUS43 KLBF 220520
TAFVTN
TAF
KVTN 220520Z 2206/2306 VRB06KT P6SM SCT250
     FM221300 03009KT P6SM SCT150
     FM221400 02011KT P6SM SCT050
     FM221800 02014G21KT P6SM BKN060
     FM230100 35009KT P6SM FEW200=

USA.gov is the U.S. government's official web portal to all federal, state and local government web resources and services.